createdAt,value
2019-04-29T00:00:47.857Z,0.00
2019-04-29T00:01:47.825Z,0.00
2019-04-29T00:02:47.810Z,0.00
2019-04-29T00:03:47.779Z,0.00
2019-04-29T00:04:47.784Z,0.00
2019-04-29T00:05:47.769Z,0.00
2019-04-29T00:06:47.784Z,0.00
2019-04-29T00:07:47.743Z,0.00
2019-04-29T00:08:47.761Z,0.00
2019-04-29T00:09:47.715Z,0.00
2019-04-29T00:10:47.733Z,0.00
2019-04-29T00:11:47.734Z,0.00
2019-04-29T00:12:47.708Z,0.00
2019-04-29T00:13:47.686Z,0.00
2019-04-29T00:14:47.673Z,0.00
2019-04-29T00:15:47.649Z,0.00
2019-04-29T00:16:47.636Z,0.00
2019-04-29T00:17:47.666Z,0.00
2019-04-29T00:18:47.672Z,0.00
2019-04-29T00:19:47.622Z,0.00
2019-04-29T00:20:47.600Z,0.00
2019-04-29T00:21:47.625Z,0.00
2019-04-29T00:22:47.575Z,0.00
2019-04-29T00:23:47.583Z,0.00
2019-04-29T00:24:47.591Z,0.00
2019-04-29T00:25:47.579Z,0.00
2019-04-29T00:26:47.532Z,0.00
2019-04-29T00:27:47.526Z,0.00
2019-04-29T00:28:50.340Z,0.00
2019-04-29T00:29:47.506Z,0.00
2019-04-29T00:30:47.509Z,0.00
2019-04-29T00:31:47.529Z,0.00
2019-04-29T00:32:47.473Z,0.00
2019-04-29T00:33:47.480Z,0.00
2019-04-29T00:34:47.449Z,0.00
2019-04-29T00:35:47.441Z,0.00
2019-04-29T00:36:47.421Z,0.00
2019-04-29T00:37:47.434Z,0.00
2019-04-29T00:38:47.405Z,0.00
2019-04-29T00:39:47.434Z,0.00
2019-04-29T00:40:47.384Z,0.00
2019-04-29T00:41:47.387Z,0.00
2019-04-29T00:42:47.376Z,0.00
2019-04-29T00:43:47.397Z,0.00
2019-04-29T00:44:47.350Z,0.00
2019-04-29T00:45:47.338Z,0.00
2019-04-29T00:46:47.339Z,0.00
2019-04-29T00:47:47.343Z,0.00
2019-04-29T00:48:47.292Z,0.00
2019-04-29T00:49:47.293Z,0.00
2019-04-29T00:50:47.283Z,0.00
2019-04-29T00:51:47.287Z,0.00
2019-04-29T00:52:47.309Z,0.00
2019-04-29T00:53:47.294Z,0.00
2019-04-29T00:54:47.248Z,0.00
2019-04-29T00:55:47.223Z,0.00
2019-04-29T00:56:47.211Z,0.00
2019-04-29T00:57:47.231Z,0.00
2019-04-29T00:58:47.212Z,0.00
2019-04-29T00:59:47.202Z,0.00
2019-04-29T01:00:47.174Z,0.00
2019-04-29T01:01:47.170Z,0.00
2019-04-29T01:02:47.164Z,0.00
2019-04-29T01:03:47.146Z,0.00
2019-04-29T01:04:47.192Z,0.00
2019-04-29T01:05:47.189Z,0.00
2019-04-29T01:06:47.103Z,0.00
2019-04-29T01:07:47.094Z,0.00
2019-04-29T01:08:47.098Z,0.00
2019-04-29T01:09:47.072Z,0.00
2019-04-29T01:10:47.094Z,0.00
2019-04-29T01:11:47.080Z,0.00
2019-04-29T01:12:47.049Z,0.00
2019-04-29T01:13:47.081Z,0.00
2019-04-29T01:14:47.024Z,0.00
2019-04-29T01:15:47.020Z,0.00
2019-04-29T01:16:47.048Z,0.00
2019-04-29T01:17:46.994Z,0.00
2019-04-29T01:18:46.985Z,0.00
2019-04-29T01:19:46.978Z,0.00
2019-04-29T01:20:46.967Z,0.00
2019-04-29T01:21:46.964Z,0.00
2019-04-29T01:22:46.959Z,0.00
2019-04-29T01:23:46.926Z,0.00
2019-04-29T01:24:46.940Z,0.00
2019-04-29T01:25:46.931Z,0.00
2019-04-29T01:26:46.904Z,0.00
2019-04-29T01:27:46.916Z,0.00
2019-04-29T01:28:49.367Z,0.00
2019-04-29T01:29:46.873Z,0.00
2019-04-29T01:30:46.852Z,0.00
2019-04-29T01:31:46.880Z,0.00
2019-04-29T01:32:46.836Z,0.00
2019-04-29T01:33:46.842Z,0.00
2019-04-29T01:34:46.836Z,0.00
2019-04-29T01:35:46.818Z,0.00
2019-04-29T01:36:46.820Z,0.00
2019-04-29T01:37:46.789Z,0.00
2019-04-29T01:38:48.736Z,0.00
2019-04-29T01:39:46.787Z,0.00
2019-04-29T01:40:46.771Z,0.00
2019-04-29T01:41:46.775Z,0.00
2019-04-29T01:42:46.737Z,0.00
2019-04-29T01:43:46.811Z,0.00
2019-04-29T01:44:46.724Z,0.00
2019-04-29T01:45:46.720Z,0.00
2019-04-29T01:46:46.694Z,0.00
2019-04-29T01:47:46.725Z,0.00
2019-04-29T01:48:46.664Z,0.00
2019-04-29T01:49:46.662Z,0.00
2019-04-29T01:50:46.681Z,0.00
2019-04-29T01:51:46.657Z,0.00
2019-04-29T01:52:46.645Z,0.00
2019-04-29T01:53:46.610Z,0.00
2019-04-29T01:54:46.629Z,0.00
2019-04-29T01:55:46.596Z,0.00
2019-04-29T01:56:46.592Z,0.00
2019-04-29T01:57:46.594Z,0.00
2019-04-29T01:58:46.574Z,0.00
2019-04-29T01:59:46.578Z,0.00
2019-04-29T02:00:46.543Z,0.00
2019-04-29T02:01:46.569Z,0.00
2019-04-29T02:02:46.545Z,0.00
2019-04-29T02:03:46.529Z,0.00
2019-04-29T02:04:46.515Z,0.00
2019-04-29T02:05:46.677Z,0.00
2019-04-29T02:06:46.500Z,0.00
2019-04-29T02:07:46.491Z,0.00
2019-04-29T02:08:46.479Z,0.00
2019-04-29T02:09:46.465Z,0.00
2019-04-29T02:10:46.467Z,0.00
2019-04-29T02:11:46.444Z,0.00
2019-04-29T02:12:46.592Z,0.00
2019-04-29T02:13:46.420Z,0.00
2019-04-29T02:14:46.455Z,0.00
2019-04-29T02:15:46.388Z,0.00
2019-04-29T02:16:46.415Z,0.00
2019-04-29T02:17:46.367Z,0.00
2019-04-29T02:18:46.374Z,0.00
2019-04-29T02:19:46.359Z,0.00
2019-04-29T02:20:46.347Z,0.00
2019-04-29T02:21:46.343Z,0.00
2019-04-29T02:22:46.329Z,0.00
2019-04-29T02:23:46.345Z,0.00
2019-04-29T02:24:46.298Z,0.00
2019-04-29T02:25:46.316Z,0.00
2019-04-29T02:26:46.297Z,0.00
2019-04-29T02:27:46.268Z,0.00
2019-04-29T02:28:46.248Z,0.00
2019-04-29T02:29:46.283Z,0.00
2019-04-29T02:30:46.249Z,0.00
2019-04-29T02:31:46.219Z,0.00
2019-04-29T02:32:46.232Z,0.00
2019-04-29T02:33:46.196Z,0.00
2019-04-29T02:34:46.212Z,0.00
2019-04-29T02:35:46.178Z,0.00
2019-04-29T02:36:46.161Z,0.00
2019-04-29T02:37:46.165Z,0.00
2019-04-29T02:38:46.145Z,0.00
2019-04-29T02:39:46.123Z,0.00
2019-04-29T02:40:46.144Z,0.00
2019-04-29T02:41:46.117Z,0.00
2019-04-29T02:42:46.099Z,0.00
2019-04-29T02:43:46.091Z,0.00
2019-04-29T02:44:46.104Z,0.00
2019-04-29T02:45:46.070Z,0.00
2019-04-29T02:46:46.061Z,0.00
2019-04-29T02:47:46.058Z,0.00
2019-04-29T02:48:46.050Z,0.00
2019-04-29T02:49:46.037Z,0.00
2019-04-29T02:50:46.017Z,0.00
2019-04-29T02:51:46.003Z,0.00
2019-04-29T02:52:46.010Z,0.00
2019-04-29T02:53:45.991Z,0.00
2019-04-29T02:54:45.990Z,0.00
2019-04-29T02:55:45.995Z,0.00
2019-04-29T02:56:45.956Z,0.00
2019-04-29T02:57:45.999Z,0.00
2019-04-29T02:58:45.925Z,0.00
2019-04-29T02:59:45.936Z,0.00
2019-04-29T03:00:45.955Z,0.00
2019-04-29T03:01:45.911Z,0.00
2019-04-29T03:02:45.898Z,0.00
2019-04-29T03:03:45.918Z,0.00
2019-04-29T03:04:45.874Z,0.00
2019-04-29T03:05:45.902Z,0.00
2019-04-29T03:06:45.907Z,0.00
2019-04-29T03:07:45.848Z,0.00
2019-04-29T03:08:45.864Z,0.00
2019-04-29T03:09:45.844Z,0.00
2019-04-29T03:10:45.857Z,0.00
2019-04-29T03:11:45.840Z,0.00
2019-04-29T03:12:45.811Z,0.00
2019-04-29T03:13:45.772Z,0.00
2019-04-29T03:14:45.835Z,0.00
2019-04-29T03:15:45.806Z,0.00
2019-04-29T03:16:45.734Z,0.00
2019-04-29T03:17:45.766Z,0.00
2019-04-29T03:18:45.733Z,0.00
2019-04-29T03:19:45.718Z,0.00
2019-04-29T03:20:45.715Z,0.00
2019-04-29T03:21:45.695Z,0.00
2019-04-29T03:22:45.680Z,0.00
2019-04-29T03:23:45.693Z,0.00
2019-04-29T03:24:45.653Z,0.00
2019-04-29T03:25:45.682Z,0.00
2019-04-29T03:26:45.631Z,0.00
2019-04-29T03:27:45.630Z,0.00
2019-04-29T03:28:45.615Z,0.00
2019-04-29T03:29:45.639Z,0.00
2019-04-29T03:30:45.586Z,0.00
2019-04-29T03:31:45.589Z,0.00
2019-04-29T03:32:45.569Z,0.00
2019-04-29T03:33:45.559Z,0.00
2019-04-29T03:34:45.547Z,0.00
2019-04-29T03:35:45.740Z,0.00
2019-04-29T03:36:45.550Z,0.00
2019-04-29T03:37:45.581Z,0.00
2019-04-29T03:38:45.520Z,0.00
2019-04-29T03:39:45.515Z,0.00
2019-04-29T03:40:45.480Z,0.00
2019-04-29T03:41:45.487Z,0.00
2019-04-29T03:42:45.458Z,0.00
2019-04-29T03:43:45.458Z,0.00
2019-04-29T03:44:45.462Z,0.00
2019-04-29T03:45:45.452Z,0.00
2019-04-29T03:46:45.442Z,0.00
2019-04-29T03:47:45.446Z,0.00
2019-04-29T03:48:45.401Z,0.00
2019-04-29T03:49:45.425Z,0.00
2019-04-29T03:50:45.377Z,0.00
2019-04-29T03:51:45.398Z,0.00
2019-04-29T03:52:45.373Z,0.00
2019-04-29T03:53:45.422Z,0.00
2019-04-29T03:54:45.363Z,0.00
2019-04-29T03:55:45.333Z,0.00
2019-04-29T03:56:45.318Z,0.00
2019-04-29T03:57:45.324Z,0.00
2019-04-29T03:58:45.291Z,0.00
2019-04-29T03:59:45.306Z,0.00
2019-04-29T04:00:45.319Z,0.00
2019-04-29T04:01:45.264Z,0.00
2019-04-29T04:02:45.251Z,0.00
2019-04-29T04:03:45.256Z,0.00
2019-04-29T04:04:45.251Z,0.00
2019-04-29T04:05:45.227Z,5.62
2019-04-29T04:06:45.210Z,5.62
2019-04-29T04:07:45.263Z,5.62
2019-04-29T04:08:45.190Z,5.62
2019-04-29T04:09:45.207Z,5.62
2019-04-29T04:10:45.169Z,5.62
2019-04-29T04:11:45.177Z,5.62
2019-04-29T04:12:45.189Z,11.25
2019-04-29T04:13:45.285Z,11.25
2019-04-29T04:14:45.161Z,11.25
2019-04-29T04:15:45.123Z,11.25
2019-04-29T04:16:45.135Z,16.88
2019-04-29T04:17:45.098Z,16.88
2019-04-29T04:18:45.095Z,16.88
2019-04-29T04:19:45.112Z,16.88
2019-04-29T04:20:45.126Z,16.88
2019-04-29T04:21:45.056Z,16.88
2019-04-29T04:22:45.070Z,16.88
2019-04-29T04:23:45.063Z,22.50
2019-04-29T04:24:45.018Z,22.50
2019-04-29T04:25:45.057Z,22.50
2019-04-29T04:26:44.998Z,22.50
2019-04-29T04:27:45.046Z,22.50
2019-04-29T04:28:44.993Z,28.12
2019-04-29T04:29:44.991Z,28.12
2019-04-29T04:30:44.990Z,33.75
2019-04-29T04:31:45.035Z,39.38
2019-04-29T04:32:44.946Z,39.38
2019-04-29T04:33:44.919Z,39.38
2019-04-29T04:34:44.936Z,39.38
2019-04-29T04:35:44.907Z,45.00
2019-04-29T04:36:44.951Z,45.00
2019-04-29T04:37:44.908Z,45.00
2019-04-29T04:38:44.928Z,50.62
2019-04-29T04:39:44.875Z,56.25
2019-04-29T04:40:44.856Z,56.25
2019-04-29T04:41:44.849Z,61.88
2019-04-29T04:42:44.870Z,67.50
2019-04-29T04:43:44.848Z,73.12
2019-04-29T04:44:44.854Z,73.12
2019-04-29T04:45:44.801Z,73.12
2019-04-29T04:46:44.785Z,78.75
2019-04-29T04:47:44.805Z,84.38
2019-04-29T04:48:44.779Z,84.38
2019-04-29T04:49:44.759Z,90.00
2019-04-29T04:50:44.750Z,95.62
2019-04-29T04:51:44.751Z,95.62
2019-04-29T04:52:44.752Z,101.25
2019-04-29T04:53:44.740Z,101.25
2019-04-29T04:54:44.710Z,106.88
2019-04-29T04:55:44.700Z,112.50
2019-04-29T04:56:44.679Z,118.12
2019-04-29T04:57:44.678Z,123.75
2019-04-29T04:58:44.685Z,135.00
2019-04-29T04:59:44.673Z,140.62
2019-04-29T05:00:44.683Z,140.62
2019-04-29T05:01:44.638Z,140.62
2019-04-29T05:02:44.648Z,146.25
2019-04-29T05:03:44.641Z,146.25
2019-04-29T05:04:44.606Z,146.25
2019-04-29T05:05:44.596Z,151.88
2019-04-29T05:06:44.590Z,151.88
2019-04-29T05:07:44.566Z,151.88
2019-04-29T05:08:44.568Z,157.50
2019-04-29T05:09:44.561Z,157.50
2019-04-29T05:10:44.537Z,163.12
2019-04-29T05:11:44.547Z,163.12
2019-04-29T05:12:44.535Z,168.75
2019-04-29T05:13:44.503Z,174.38
2019-04-29T05:14:44.512Z,185.62
2019-04-29T05:15:44.487Z,191.25
2019-04-29T05:16:44.482Z,185.62
2019-04-29T05:17:44.462Z,174.38
2019-04-29T05:18:44.448Z,180.00
2019-04-29T05:19:44.461Z,191.25
2019-04-29T05:20:44.425Z,185.62
2019-04-29T05:21:44.416Z,196.88
2019-04-29T05:22:44.427Z,191.25
2019-04-29T05:23:44.427Z,196.88
2019-04-29T05:24:44.399Z,213.75
2019-04-29T05:25:44.377Z,281.25
2019-04-29T05:26:44.387Z,455.62
2019-04-29T05:27:44.347Z,759.38
2019-04-29T05:28:44.337Z,877.50
2019-04-29T05:29:44.329Z,759.38
2019-04-29T05:30:44.313Z,877.50
2019-04-29T05:31:44.317Z,776.25
2019-04-29T05:32:44.315Z,843.75
2019-04-29T05:33:44.312Z,1170.00
2019-04-29T05:34:46.525Z,1192.50
2019-04-29T05:35:44.292Z,1119.38
2019-04-29T05:36:44.314Z,596.25
2019-04-29T05:37:44.257Z,427.50
2019-04-29T05:38:44.231Z,472.50
2019-04-29T05:39:44.219Z,641.25
2019-04-29T05:40:44.212Z,815.62
2019-04-29T05:41:44.214Z,1023.75
2019-04-29T05:42:44.192Z,765.00
2019-04-29T05:43:44.192Z,736.88
2019-04-29T05:44:44.171Z,675.00
2019-04-29T05:45:46.139Z,714.38
2019-04-29T05:46:44.156Z,720.00
2019-04-29T05:47:44.137Z,545.62
2019-04-29T05:48:44.137Z,607.50
2019-04-29T05:49:44.133Z,534.38
2019-04-29T05:50:47.564Z,517.50
2019-04-29T05:51:45.097Z,590.62
2019-04-29T05:52:44.104Z,596.25
2019-04-29T05:53:47.290Z,607.50
2019-04-29T05:54:45.059Z,562.50
2019-04-29T05:55:44.044Z,714.38
2019-04-29T05:56:44.032Z,933.75
2019-04-29T05:57:44.037Z,1040.62
2019-04-29T05:58:44.020Z,933.75
2019-04-29T05:59:47.853Z,990.00
2019-04-29T06:00:44.991Z,1181.25
2019-04-29T06:01:47.155Z,1282.50
2019-04-29T06:02:43.991Z,1366.88
2019-04-29T06:03:44.426Z,1186.88
2019-04-29T06:04:44.117Z,1181.25
2019-04-29T06:05:43.948Z,939.38
2019-04-29T06:06:43.938Z,1063.12
2019-04-29T06:07:43.959Z,1175.62
2019-04-29T06:08:43.921Z,1366.88
2019-04-29T06:09:43.889Z,1372.50
2019-04-29T06:10:43.901Z,1063.12
2019-04-29T06:11:43.909Z,1158.75
2019-04-29T06:12:44.615Z,1164.38
2019-04-29T06:13:43.883Z,1333.12
2019-04-29T06:14:43.856Z,1490.62
2019-04-29T06:15:43.829Z,1400.62
2019-04-29T06:16:43.818Z,1479.38
2019-04-29T06:17:44.844Z,1659.38
2019-04-29T06:18:44.051Z,1591.88
2019-04-29T06:19:43.786Z,1507.50
2019-04-29T06:20:43.778Z,1366.88
2019-04-29T06:21:43.801Z,1518.75
2019-04-29T06:22:43.753Z,1873.12
2019-04-29T06:23:43.742Z,1991.25
2019-04-29T06:24:43.818Z,1738.12
2019-04-29T06:25:43.727Z,826.88
2019-04-29T06:26:43.910Z,1158.75
2019-04-29T06:27:43.705Z,1333.12
2019-04-29T06:28:43.695Z,1074.38
2019-04-29T06:29:43.675Z,1023.75
2019-04-29T06:30:45.145Z,1018.12
2019-04-29T06:31:44.678Z,1288.12
2019-04-29T06:32:43.650Z,1665.00
2019-04-29T06:33:43.681Z,1383.75
2019-04-29T06:34:43.629Z,1563.75
2019-04-29T06:35:47.458Z,1518.75
2019-04-29T06:36:44.661Z,1721.25
2019-04-29T06:37:43.603Z,1845.00
2019-04-29T06:38:43.590Z,2070.00
2019-04-29T06:39:43.578Z,2345.62
2019-04-29T06:40:43.562Z,2143.12
2019-04-29T06:41:45.326Z,2266.88
2019-04-29T06:42:43.564Z,2317.50
2019-04-29T06:43:43.609Z,2238.75
2019-04-29T06:44:44.313Z,2221.88
2019-04-29T06:45:44.523Z,2165.62
2019-04-29T06:46:43.514Z,2053.12
2019-04-29T06:47:43.510Z,1676.25
2019-04-29T06:48:43.481Z,928.12
2019-04-29T06:49:43.472Z,601.88
2019-04-29T06:50:43.470Z,590.62
2019-04-29T06:51:43.447Z,601.88
2019-04-29T06:52:43.462Z,607.50
2019-04-29T06:53:43.442Z,618.75
2019-04-29T06:54:43.412Z,613.12
2019-04-29T06:55:43.402Z,641.25
2019-04-29T06:56:43.395Z,607.50
2019-04-29T06:57:43.442Z,613.12
2019-04-29T06:58:43.398Z,590.62
2019-04-29T06:59:47.564Z,573.75
2019-04-29T07:00:44.349Z,562.50
2019-04-29T07:01:43.337Z,562.50
2019-04-29T07:02:45.448Z,562.50
2019-04-29T07:03:44.349Z,573.75
2019-04-29T07:04:43.327Z,871.88
2019-04-29T07:05:43.298Z,1681.88
2019-04-29T07:06:56.424Z,2300.62
2019-04-29T07:07:44.292Z,2401.88
2019-04-29T07:08:43.267Z,2626.88
2019-04-29T07:09:43.288Z,2593.12
2019-04-29T07:10:43.269Z,2340.00
2019-04-29T07:11:43.245Z,2289.38
2019-04-29T07:12:47.384Z,2109.38
2019-04-29T07:13:46.648Z,1035.00
2019-04-29T07:14:43.208Z,579.38
2019-04-29T07:15:43.404Z,568.12
2019-04-29T07:16:43.199Z,568.12
2019-04-29T07:17:43.191Z,568.12
2019-04-29T07:18:48.265Z,573.75
2019-04-29T07:19:44.178Z,573.75
2019-04-29T07:20:43.175Z,568.12
2019-04-29T07:21:46.913Z,568.12
2019-04-29T07:22:44.124Z,562.50
2019-04-29T07:23:43.127Z,556.88
2019-04-29T07:24:43.106Z,556.88
2019-04-29T07:25:43.088Z,562.50
2019-04-29T07:26:43.107Z,562.50
2019-04-29T07:27:44.529Z,556.88
2019-04-29T07:28:43.060Z,551.25
2019-04-29T07:29:43.091Z,551.25
2019-04-29T07:31:00.645Z,551.25
2019-04-29T07:31:44.025Z,556.88
2019-04-29T07:32:47.089Z,551.25
2019-04-29T07:33:44.018Z,556.88
2019-04-29T07:34:42.997Z,556.88
2019-04-29T07:35:47.749Z,562.50
2019-04-29T07:36:43.969Z,556.88
2019-04-29T07:37:42.958Z,551.25
2019-04-29T07:38:46.533Z,545.62
2019-04-29T07:39:43.974Z,551.25
2019-04-29T07:40:43.722Z,551.25
2019-04-29T07:41:42.931Z,551.25
2019-04-29T07:42:42.915Z,545.62
2019-04-29T07:43:44.140Z,540.00
2019-04-29T07:44:44.164Z,540.00
2019-04-29T07:45:44.301Z,551.25
2019-04-29T07:46:56.153Z,556.88
2019-04-29T07:47:55.866Z,562.50
2019-04-29T07:48:43.899Z,568.12
2019-04-29T07:49:42.843Z,573.75
2019-04-29T07:50:42.864Z,573.75
2019-04-29T07:51:42.809Z,579.38
2019-04-29T07:52:45.701Z,585.00
2019-04-29T07:53:45.636Z,590.62
2019-04-29T07:54:42.798Z,618.75
2019-04-29T07:55:42.793Z,1108.12
2019-04-29T07:56:43.671Z,2272.50
2019-04-29T07:57:42.744Z,2846.25
2019-04-29T07:58:42.760Z,2739.38
2019-04-29T07:59:42.730Z,2840.62
2019-04-29T08:00:44.655Z,2728.12
2019-04-29T08:01:43.775Z,2750.62
2019-04-29T08:02:42.715Z,2953.12
2019-04-29T08:03:42.686Z,2773.12
2019-04-29T08:04:42.734Z,2655.00
2019-04-29T08:05:42.676Z,2739.38
2019-04-29T08:06:44.695Z,2930.62
2019-04-29T08:07:42.657Z,3009.38
2019-04-29T08:08:54.273Z,3015.00
2019-04-29T08:09:44.210Z,2930.62
2019-04-29T08:10:54.002Z,2913.75
2019-04-29T08:11:43.601Z,2829.38
2019-04-29T08:12:42.616Z,2525.62
2019-04-29T08:13:42.603Z,2413.12
2019-04-29T08:14:42.574Z,2632.50
2019-04-29T08:15:43.612Z,2840.62
2019-04-29T08:16:42.552Z,2919.38
2019-04-29T08:17:42.546Z,2930.62
2019-04-29T08:18:42.594Z,2823.75
2019-04-29T08:19:42.519Z,2885.62
2019-04-29T08:20:42.514Z,2992.50
2019-04-29T08:21:45.470Z,2874.38
2019-04-29T08:22:43.491Z,2812.50
2019-04-29T08:23:42.479Z,2806.88
2019-04-29T08:24:45.998Z,2891.25
2019-04-29T08:25:43.465Z,2761.88
2019-04-29T08:26:47.337Z,2660.62
2019-04-29T08:27:43.894Z,2503.12
2019-04-29T08:28:42.437Z,2491.88
2019-04-29T08:29:42.454Z,2615.62
2019-04-29T08:30:45.869Z,2503.12
2019-04-29T08:31:42.409Z,2576.25
2019-04-29T08:32:42.456Z,2671.88
2019-04-29T08:33:46.350Z,2733.75
2019-04-29T08:34:42.438Z,2784.38
2019-04-29T08:35:42.370Z,2840.62
2019-04-29T08:36:42.409Z,2823.75
2019-04-29T08:37:42.391Z,2891.25
2019-04-29T08:38:42.351Z,2829.38
2019-04-29T08:39:42.352Z,2626.88
2019-04-29T08:40:45.116Z,2694.38
2019-04-29T08:41:43.330Z,2728.12
2019-04-29T08:42:46.666Z,2728.12
2019-04-29T08:43:42.391Z,2823.75
2019-04-29T08:44:42.305Z,2863.12
2019-04-29T08:45:42.284Z,2767.50
2019-04-29T08:46:44.403Z,2745.00
2019-04-29T08:47:43.279Z,2722.50
2019-04-29T08:48:42.293Z,2767.50
2019-04-29T08:49:42.249Z,2733.75
2019-04-29T08:50:42.262Z,2716.88
2019-04-29T08:51:42.229Z,2649.38
2019-04-29T08:52:42.230Z,2666.25
2019-04-29T08:53:42.211Z,2593.12
2019-04-29T08:54:42.218Z,2576.25
2019-04-29T08:55:42.195Z,2655.00
2019-04-29T08:57:01.693Z,2666.25
2019-04-29T08:57:43.199Z,2581.88
2019-04-29T08:58:44.166Z,2677.50
2019-04-29T08:59:43.212Z,2643.75
2019-04-29T09:00:42.138Z,2497.50
2019-04-29T09:01:42.132Z,2604.38
2019-04-29T09:02:47.064Z,2700.00
2019-04-29T09:03:43.228Z,2773.12
2019-04-29T09:04:52.743Z,2643.75
2019-04-29T09:05:46.198Z,2643.75
2019-04-29T09:06:43.089Z,2683.12
2019-04-29T09:07:42.078Z,2711.25
2019-04-29T09:08:53.994Z,2705.62
2019-04-29T09:09:43.084Z,2638.12
2019-04-29T09:10:42.069Z,2604.38
2019-04-29T09:11:43.548Z,2593.12
2019-04-29T09:12:43.026Z,2643.75
2019-04-29T09:13:42.017Z,2649.38
2019-04-29T09:14:42.012Z,2728.12
2019-04-29T09:15:42.044Z,2711.25
2019-04-29T09:16:42.007Z,2643.75
2019-04-29T09:17:41.991Z,2593.12
2019-04-29T09:18:42.064Z,2643.75
2019-04-29T09:19:41.984Z,2677.50
2019-04-29T09:20:41.955Z,2598.75
2019-04-29T09:21:41.969Z,2570.62
2019-04-29T09:22:41.947Z,2548.12
2019-04-29T09:23:41.959Z,2379.38
2019-04-29T09:24:43.524Z,2424.38
2019-04-29T09:25:42.913Z,2480.62
2019-04-29T09:26:41.900Z,2559.38
2019-04-29T09:27:44.984Z,2626.88
2019-04-29T09:28:41.888Z,2587.50
2019-04-29T09:29:41.886Z,2373.75
2019-04-29T09:30:41.870Z,2148.75
2019-04-29T09:31:41.927Z,2323.12
2019-04-29T09:32:41.883Z,2491.88
2019-04-29T09:33:44.201Z,2317.50
2019-04-29T09:34:42.830Z,2143.12
2019-04-29T09:35:41.826Z,1890.00
2019-04-29T09:36:43.892Z,2306.25
2019-04-29T09:37:42.800Z,2109.38
2019-04-29T09:38:41.829Z,2351.25
2019-04-29T09:39:43.322Z,2401.88
2019-04-29T09:40:41.804Z,2368.12
2019-04-29T09:41:41.768Z,2340.00
2019-04-29T09:42:45.654Z,2261.25
2019-04-29T09:43:42.747Z,2379.38
2019-04-29T09:44:44.793Z,2306.25
2019-04-29T09:45:41.802Z,2469.38
2019-04-29T09:46:41.734Z,2508.75
2019-04-29T09:47:41.705Z,2311.88
2019-04-29T09:48:41.762Z,2311.88
2019-04-29T09:49:41.697Z,2430.00
2019-04-29T09:50:41.695Z,2351.25
2019-04-29T09:51:41.680Z,2199.38
2019-04-29T09:52:41.688Z,2193.75
2019-04-29T09:53:41.753Z,2171.25
2019-04-29T09:54:41.659Z,2126.25
2019-04-29T09:55:41.637Z,2182.50
2019-04-29T09:56:41.636Z,2255.62
2019-04-29T09:57:41.624Z,2205.00
2019-04-29T09:58:41.620Z,2165.62
2019-04-29T09:59:41.630Z,2216.25
2019-04-29T10:00:41.973Z,2272.50
2019-04-29T10:01:41.596Z,2261.25
2019-04-29T10:02:41.611Z,2160.00
2019-04-29T10:03:41.564Z,1968.75
2019-04-29T10:04:55.391Z,1693.12
2019-04-29T10:05:42.598Z,1726.88
2019-04-29T10:06:41.537Z,2131.88
2019-04-29T10:07:41.526Z,2250.00
2019-04-29T10:08:41.521Z,2137.50
2019-04-29T10:09:41.504Z,2126.25
2019-04-29T10:10:41.752Z,2176.88
2019-04-29T10:11:41.490Z,2221.88
2019-04-29T10:12:41.469Z,2255.62
2019-04-29T10:13:41.473Z,2199.38
2019-04-29T10:14:41.465Z,2131.88
2019-04-29T10:15:41.463Z,2176.88
2019-04-29T10:16:41.480Z,2205.00
2019-04-29T10:17:41.433Z,2137.50
2019-04-29T10:18:41.422Z,2070.00
2019-04-29T10:19:41.407Z,2019.38
2019-04-29T10:20:41.407Z,1985.62
2019-04-29T10:21:41.391Z,2053.12
2019-04-29T10:22:41.484Z,2008.12
2019-04-29T10:23:41.376Z,1755.00
2019-04-29T10:24:41.359Z,1760.62
2019-04-29T10:25:41.365Z,1985.62
2019-04-29T10:26:41.343Z,1918.12
2019-04-29T10:27:41.351Z,1715.62
2019-04-29T10:28:41.375Z,1704.38
2019-04-29T10:29:41.314Z,1890.00
2019-04-29T10:30:41.303Z,1856.25
2019-04-29T10:31:41.289Z,1687.50
2019-04-29T10:32:42.538Z,1850.62
2019-04-29T10:33:41.281Z,1704.38
2019-04-29T10:34:43.101Z,826.88
2019-04-29T10:35:45.219Z,506.25
2019-04-29T10:36:41.241Z,483.75
2019-04-29T10:37:41.238Z,466.88
2019-04-29T10:38:44.972Z,466.88
2019-04-29T10:39:42.437Z,466.88
2019-04-29T10:40:41.223Z,455.62
2019-04-29T10:41:41.770Z,455.62
2019-04-29T10:42:41.186Z,450.00
2019-04-29T10:43:41.204Z,461.25
2019-04-29T10:44:41.160Z,478.12
2019-04-29T10:45:41.187Z,478.12
2019-04-29T10:46:41.146Z,472.50
2019-04-29T10:47:41.153Z,483.75
2019-04-29T10:48:41.132Z,506.25
2019-04-29T10:49:41.119Z,455.62
2019-04-29T10:50:41.102Z,455.62
2019-04-29T10:51:41.114Z,506.25
2019-04-29T10:52:43.492Z,489.38
2019-04-29T10:53:41.104Z,455.62
2019-04-29T10:54:41.061Z,455.62
2019-04-29T10:55:41.060Z,438.75
2019-04-29T10:56:41.167Z,500.62
2019-04-29T10:57:44.917Z,511.88
2019-04-29T10:58:42.014Z,556.88
2019-04-29T10:59:45.006Z,540.00
2019-04-29T11:00:42.020Z,483.75
2019-04-29T11:01:40.990Z,472.50
2019-04-29T11:02:44.834Z,466.88
2019-04-29T11:03:41.959Z,472.50
2019-04-29T11:04:40.956Z,500.62
2019-04-29T11:05:44.650Z,506.25
2019-04-29T11:06:44.015Z,523.12
2019-04-29T11:07:40.933Z,523.12
2019-04-29T11:08:43.196Z,551.25
2019-04-29T11:09:40.898Z,585.00
2019-04-29T11:10:41.056Z,568.12
2019-04-29T11:11:40.920Z,568.12
2019-04-29T11:12:40.881Z,551.25
2019-04-29T11:13:48.046Z,528.75
2019-04-29T11:14:41.848Z,534.38
2019-04-29T11:15:40.848Z,483.75
2019-04-29T11:16:46.379Z,461.25
2019-04-29T11:17:44.538Z,433.12
2019-04-29T11:18:40.838Z,393.75
2019-04-29T11:19:41.693Z,371.25
2019-04-29T11:20:40.779Z,365.62
2019-04-29T11:21:40.791Z,382.50
2019-04-29T11:22:40.758Z,405.00
2019-04-29T11:23:40.760Z,421.88
2019-04-29T11:24:40.768Z,472.50
2019-04-29T11:25:40.803Z,506.25
2019-04-29T11:26:40.729Z,506.25
2019-04-29T11:27:40.732Z,495.00
2019-04-29T11:28:40.711Z,478.12
2019-04-29T11:29:40.732Z,478.12
2019-04-29T11:30:40.773Z,495.00
2019-04-29T11:31:40.675Z,495.00
2019-04-29T11:32:40.656Z,489.38
2019-04-29T11:33:41.719Z,478.12
2019-04-29T11:34:40.673Z,461.25
2019-04-29T11:35:40.621Z,461.25
2019-04-29T11:36:43.941Z,450.00
2019-04-29T11:37:40.609Z,416.25
2019-04-29T11:38:40.611Z,421.88
2019-04-29T11:39:40.583Z,421.88
2019-04-29T11:40:43.604Z,416.25
2019-04-29T11:41:40.573Z,427.50
2019-04-29T11:42:41.702Z,427.50
2019-04-29T11:43:40.580Z,399.38
2019-04-29T11:44:40.576Z,399.38
2019-04-29T11:45:40.515Z,444.38
2019-04-29T11:46:40.512Z,450.00
2019-04-29T11:47:40.495Z,455.62
2019-04-29T11:48:40.489Z,461.25
2019-04-29T11:49:40.467Z,455.62
2019-04-29T11:50:40.478Z,421.88
2019-04-29T11:52:05.312Z,399.38
2019-04-29T11:52:41.433Z,399.38
2019-04-29T11:53:40.424Z,421.88
2019-04-29T11:54:40.471Z,433.12
2019-04-29T11:55:43.436Z,444.38
2019-04-29T11:56:41.400Z,433.12
2019-04-29T11:57:41.335Z,410.62
2019-04-29T11:58:40.372Z,393.75
2019-04-29T11:59:40.379Z,410.62
2019-04-29T12:00:40.540Z,444.38
2019-04-29T12:01:46.883Z,483.75
2019-04-29T12:02:45.885Z,461.25
2019-04-29T12:03:40.321Z,455.62
2019-04-29T12:04:42.221Z,450.00
2019-04-29T12:05:44.713Z,427.50
2019-04-29T12:06:41.345Z,438.75
2019-04-29T12:07:40.280Z,416.25
2019-04-29T12:08:40.268Z,410.62
2019-04-29T12:09:40.253Z,405.00
2019-04-29T12:10:48.469Z,410.62
2019-04-29T12:11:41.233Z,416.25
2019-04-29T12:12:43.735Z,433.12
2019-04-29T12:13:41.207Z,450.00
2019-04-29T12:14:40.390Z,450.00
2019-04-29T12:15:40.181Z,438.75
2019-04-29T12:16:40.178Z,433.12
2019-04-29T12:17:40.174Z,433.12
2019-04-29T12:18:40.177Z,416.25
2019-04-29T12:19:40.177Z,399.38
2019-04-29T12:20:40.159Z,393.75
2019-04-29T12:21:40.121Z,376.88
2019-04-29T12:22:48.038Z,354.38
2019-04-29T12:23:41.121Z,371.25
2019-04-29T12:24:40.081Z,365.62
2019-04-29T12:25:40.080Z,365.62
2019-04-29T12:26:44.355Z,376.88
2019-04-29T12:27:40.051Z,388.12
2019-04-29T12:28:42.737Z,405.00
2019-04-29T12:29:40.053Z,382.50
2019-04-29T12:30:40.059Z,382.50
2019-04-29T12:31:40.015Z,393.75
2019-04-29T12:32:43.218Z,410.62
2019-04-29T12:33:39.987Z,427.50
2019-04-29T12:34:39.977Z,455.62
2019-04-29T12:35:51.132Z,444.38
2019-04-29T12:36:54.769Z,433.12
2019-04-29T12:37:40.947Z,416.25
2019-04-29T12:38:40.592Z,399.38